sensor_id;sensor_type;location;lat;lon;timestamp;temperature;humidity
52127;DHT22;38120;53.176;6.614;2023-11-19T00:00:10;11.30;99.90
52127;DHT22;38120;53.176;6.614;2023-11-19T00:02:42;11.30;99.90
52127;DHT22;38120;53.176;6.614;2023-11-19T00:05:09;11.40;99.90
52127;DHT22;38120;53.176;6.614;2023-11-19T00:07:37;11.40;99.90
52127;DHT22;38120;53.176;6.614;2023-11-19T00:10:06;11.50;99.90
52127;DHT22;38120;53.176;6.614;2023-11-19T00:12:41;11.40;99.90
52127;DHT22;38120;53.176;6.614;2023-11-19T00:15:07;11.50;99.90
52127;DHT22;38120;53.176;6.614;2023-11-19T00:17:44;11.50;99.90
52127;DHT22;38120;53.176;6.614;2023-11-19T00:20:20;11.60;99.90
52127;DHT22;38120;53.176;6.614;2023-11-19T00:22:47;11.60;99.90
52127;DHT22;38120;53.176;6.614;2023-11-19T00:25:20;11.70;99.90
52127;DHT22;38120;53.176;6.614;2023-11-19T00:27:47;11.70;99.90
52127;DHT22;38120;53.176;6.614;2023-11-19T00:30:13;11.80;99.90
52127;DHT22;38120;53.176;6.614;2023-11-19T00:32:39;11.80;99.90
52127;DHT22;38120;53.176;6.614;2023-11-19T00:35:06;12.00;99.90
52127;DHT22;38120;53.176;6.614;2023-11-19T00:37:32;12.20;99.90
52127;DHT22;38120;53.176;6.614;2023-11-19T00:39:58;12.30;99.90
52127;DHT22;38120;53.176;6.614;2023-11-19T00:42:24;12.30;99.90
52127;DHT22;38120;53.176;6.614;2023-11-19T00:44:50;12.40;99.90
52127;DHT22;38120;53.176;6.614;2023-11-19T00:47:17;12.40;99.90
52127;DHT22;38120;53.176;6.614;2023-11-19T00:49:46;12.40;99.90
52127;DHT22;38120;53.176;6.614;2023-11-19T00:52:14;12.40;99.90
52127;DHT22;38120;53.176;6.614;2023-11-19T00:54:40;12.50;99.90
52127;DHT22;38120;53.176;6.614;2023-11-19T00:57:05;12.50;99.90
52127;DHT22;38120;53.176;6.614;2023-11-19T00:59:31;12.50;99.90
52127;DHT22;38120;53.176;6.614;2023-11-19T01:01:58;12.50;99.90
52127;DHT22;38120;53.176;6.614;2023-11-19T01:04:24;12.50;99.90
52127;DHT22;38120;53.176;6.614;2023-11-19T01:06:50;12.60;99.90
52127;DHT22;38120;53.176;6.614;2023-11-19T01:09:15;12.70;99.90
52127;DHT22;38120;53.176;6.614;2023-11-19T01:11:41;12.60;99.90
52127;DHT22;38120;53.176;6.614;2023-11-19T01:14:07;12.60;99.90
52127;DHT22;38120;53.176;6.614;2023-11-19T01:16:32;12.60;99.90
52127;DHT22;38120;53.176;6.614;2023-11-19T01:18:58;12.60;99.90
52127;DHT22;38120;53.176;6.614;2023-11-19T01:21:24;12.60;99.90
52127;DHT22;38120;53.176;6.614;2023-11-19T01:23:50;12.70;99.90
52127;DHT22;38120;53.176;6.614;2023-11-19T01:26:15;12.70;99.90
52127;DHT22;38120;53.176;6.614;2023-11-19T01:28:42;12.60;99.90
52127;DHT22;38120;53.176;6.614;2023-11-19T01:31:12;12.60;99.90
52127;DHT22;38120;53.176;6.614;2023-11-19T01:33:40;12.70;99.90
52127;DHT22;38120;53.176;6.614;2023-11-19T01:36:07;12.70;99.90
52127;DHT22;38120;53.176;6.614;2023-11-19T01:38:33;12.70;99.90
52127;DHT22;38120;53.176;6.614;2023-11-19T01:41:03;12.80;99.90
52127;DHT22;38120;53.176;6.614;2023-11-19T01:43:39;12.70;99.90
52127;DHT22;38120;53.176;6.614;2023-11-19T01:46:08;12.80;99.90
52127;DHT22;38120;53.176;6.614;2023-11-19T01:48:40;12.80;99.90
52127;DHT22;38120;53.176;6.614;2023-11-19T01:51:08;12.70;99.90
52127;DHT22;38120;53.176;6.614;2023-11-19T01:53:34;12.80;99.90
52127;DHT22;38120;53.176;6.614;2023-11-19T01:56:02;12.70;99.90
52127;DHT22;38120;53.176;6.614;2023-11-19T01:58:28;12.60;99.90
52127;DHT22;38120;53.176;6.614;2023-11-19T02:00:56;12.70;99.90
52127;DHT22;38120;53.176;6.614;2023-11-19T02:03:23;12.70;99.90
52127;DHT22;38120;53.176;6.614;2023-11-19T02:05:51;12.70;99.90
52127;DHT22;38120;53.176;6.614;2023-11-19T02:08:18;12.70;99.90
52127;DHT22;38120;53.176;6.614;2023-11-19T02:10:44;12.70;99.90
52127;DHT22;38120;53.176;6.614;2023-11-19T02:13:11;12.70;99.90
52127;DHT22;38120;53.176;6.614;2023-11-19T02:15:40;12.70;99.90
52127;DHT22;38120;53.176;6.614;2023-11-19T02:18:23;12.70;99.90
52127;DHT22;38120;53.176;6.614;2023-11-19T02:20:50;12.70;99.90
52127;DHT22;38120;53.176;6.614;2023-11-19T02:23:16;12.70;99.90
52127;DHT22;38120;53.176;6.614;2023-11-19T02:25:43;12.70;99.90
52127;DHT22;38120;53.176;6.614;2023-11-19T02:28:12;12.70;99.90
52127;DHT22;38120;53.176;6.614;2023-11-19T02:30:38;12.70;99.90
52127;DHT22;38120;53.176;6.614;2023-11-19T02:33:04;12.70;99.90
52127;DHT22;38120;53.176;6.614;2023-11-19T02:35:32;12.70;99.90
52127;DHT22;38120;53.176;6.614;2023-11-19T02:37:59;12.70;99.90
52127;DHT22;38120;53.176;6.614;2023-11-19T02:40:26;12.70;99.90
52127;DHT22;38120;53.176;6.614;2023-11-19T02:42:53;12.70;99.90
52127;DHT22;38120;53.176;6.614;2023-11-19T02:45:19;12.70;99.90
52127;DHT22;38120;53.176;6.614;2023-11-19T02:47:45;12.70;99.90
52127;DHT22;38120;53.176;6.614;2023-11-19T02:50:11;12.70;99.90
52127;DHT22;38120;53.176;6.614;2023-11-19T02:52:45;12.70;99.90
52127;DHT22;38120;53.176;6.614;2023-11-19T02:55:12;12.70;99.90
52127;DHT22;38120;53.176;6.614;2023-11-19T02:57:42;12.70;99.90
52127;DHT22;38120;53.176;6.614;2023-11-19T03:00:19;12.70;99.90
52127;DHT22;38120;53.176;6.614;2023-11-19T03:02:49;12.70;99.90
52127;DHT22;38120;53.176;6.614;2023-11-19T03:05:24;12.70;99.90
52127;DHT22;38120;53.176;6.614;2023-11-19T03:07:50;12.80;99.90
52127;DHT22;38120;53.176;6.614;2023-11-19T03:10:17;12.70;99.90
52127;DHT22;38120;53.176;6.614;2023-11-19T03:12:44;12.70;99.90
52127;DHT22;38120;53.176;6.614;2023-11-19T03:15:11;12.70;99.90
52127;DHT22;38120;53.176;6.614;2023-11-19T03:17:40;12.70;99.90
52127;DHT22;38120;53.176;6.614;2023-11-19T03:20:11;12.70;99.90
52127;DHT22;38120;53.176;6.614;2023-11-19T03:22:41;12.60;99.90
52127;DHT22;38120;53.176;6.614;2023-11-19T03:25:08;12.60;99.90
52127;DHT22;38120;53.176;6.614;2023-11-19T03:27:37;12.60;99.90
52127;DHT22;38120;53.176;6.614;2023-11-19T03:30:12;12.60;99.90
52127;DHT22;38120;53.176;6.614;2023-11-19T03:32:38;12.50;99.90
52127;DHT22;38120;53.176;6.614;2023-11-19T03:35:05;12.50;99.90
52127;DHT22;38120;53.176;6.614;2023-11-19T03:37:33;12.60;99.90
52127;DHT22;38120;53.176;6.614;2023-11-19T03:39:59;12.60;99.90
52127;DHT22;38120;53.176;6.614;2023-11-19T03:42:25;12.50;99.90
52127;DHT22;38120;53.176;6.614;2023-11-19T03:44:52;12.50;99.90
52127;DHT22;38120;53.176;6.614;2023-11-19T03:47:18;12.60;99.90
52127;DHT22;38120;53.176;6.614;2023-11-19T03:49:51;12.50;99.90
52127;DHT22;38120;53.176;6.614;2023-11-19T03:52:17;12.50;99.90
52127;DHT22;38120;53.176;6.614;2023-11-19T03:54:43;12.50;99.90
52127;DHT22;38120;53.176;6.614;2023-11-19T03:57:09;12.50;99.90
52127;DHT22;38120;53.176;6.614;2023-11-19T03:59:36;12.50;99.90
52127;DHT22;38120;53.176;6.614;2023-11-19T04:02:02;12.40;99.90
52127;DHT22;38120;53.176;6.614;2023-11-19T04:04:28;12.50;99.90
52127;DHT22;38120;53.176;6.614;2023-11-19T04:07:01;12.50;99.90
52127;DHT22;38120;53.176;6.614;2023-11-19T04:09:28;12.50;99.90
52127;DHT22;38120;53.176;6.614;2023-11-19T04:11:54;12.50;99.90
52127;DHT22;38120;53.176;6.614;2023-11-19T04:14:19;12.50;99.90
52127;DHT22;38120;53.176;6.614;2023-11-19T04:16:45;12.50;99.90
52127;DHT22;38120;53.176;6.614;2023-11-19T04:19:11;12.40;99.90
52127;DHT22;38120;53.176;6.614;2023-11-19T04:21:40;12.30;99.90
52127;DHT22;38120;53.176;6.614;2023-11-19T04:24:07;12.40;99.90
52127;DHT22;38120;53.176;6.614;2023-11-19T04:26:33;12.40;99.90
52127;DHT22;38120;53.176;6.614;2023-11-19T04:28:59;12.40;99.90
52127;DHT22;38120;53.176;6.614;2023-11-19T04:31:29;12.30;99.90
52127;DHT22;38120;53.176;6.614;2023-11-19T04:33:57;12.40;99.90
52127;DHT22;38120;53.176;6.614;2023-11-19T04:36:22;12.30;99.90
52127;DHT22;38120;53.176;6.614;2023-11-19T04:38:50;12.40;99.90
52127;DHT22;38120;53.176;6.614;2023-11-19T04:41:16;12.40;99.90
52127;DHT22;38120;53.176;6.614;2023-11-19T04:43:41;12.30;99.90
52127;DHT22;38120;53.176;6.614;2023-11-19T04:46:09;12.40;99.90
52127;DHT22;38120;53.176;6.614;2023-11-19T04:48:35;12.30;99.90
52127;DHT22;38120;53.176;6.614;2023-11-19T04:51:01;12.30;99.90
52127;DHT22;38120;53.176;6.614;2023-11-19T04:53:26;12.30;99.90
52127;DHT22;38120;53.176;6.614;2023-11-19T04:55:52;12.30;99.90
52127;DHT22;38120;53.176;6.614;2023-11-19T04:58:18;12.30;99.90
52127;DHT22;38120;53.176;6.614;2023-11-19T05:00:44;12.30;99.90
52127;DHT22;38120;53.176;6.614;2023-11-19T05:03:10;12.30;99.90
52127;DHT22;38120;53.176;6.614;2023-11-19T05:05:36;12.30;99.90
52127;DHT22;38120;53.176;6.614;2023-11-19T05:08:02;12.30;99.90
52127;DHT22;38120;53.176;6.614;2023-11-19T05:10:28;12.30;99.90
52127;DHT22;38120;53.176;6.614;2023-11-19T05:12:53;12.20;99.90
52127;DHT22;38120;53.176;6.614;2023-11-19T05:15:21;12.20;99.90
52127;DHT22;38120;53.176;6.614;2023-11-19T05:17:47;12.10;99.90
52127;DHT22;38120;53.176;6.614;2023-11-19T05:20:13;12.20;99.90
52127;DHT22;38120;53.176;6.614;2023-11-19T05:22:42;12.20;99.90
52127;DHT22;38120;53.176;6.614;2023-11-19T05:25:08;12.10;99.90
52127;DHT22;38120;53.176;6.614;2023-11-19T05:27:35;12.10;99.90
52127;DHT22;38120;53.176;6.614;2023-11-19T05:30:02;12.10;99.90
52127;DHT22;38120;53.176;6.614;2023-11-19T05:32:28;12.10;99.90
52127;DHT22;38120;53.176;6.614;2023-11-19T05:34:53;12.10;99.90
52127;DHT22;38120;53.176;6.614;2023-11-19T05:37:19;12.00;99.90
52127;DHT22;38120;53.176;6.614;2023-11-19T05:39:45;12.00;99.90
52127;DHT22;38120;53.176;6.614;2023-11-19T05:42:11;11.90;99.90
52127;DHT22;38120;53.176;6.614;2023-11-19T05:44:37;12.00;99.90
52127;DHT22;38120;53.176;6.614;2023-11-19T05:47:03;11.90;99.90
52127;DHT22;38120;53.176;6.614;2023-11-19T05:49:29;12.00;99.90
52127;DHT22;38120;53.176;6.614;2023-11-19T05:51:55;12.00;99.90
52127;DHT22;38120;53.176;6.614;2023-11-19T05:54:21;12.00;99.90
52127;DHT22;38120;53.176;6.614;2023-11-19T05:56:48;11.90;99.90
52127;DHT22;38120;53.176;6.614;2023-11-19T05:59:14;12.00;99.90
52127;DHT22;38120;53.176;6.614;2023-11-19T06:01:43;12.00;99.90
52127;DHT22;38120;53.176;6.614;2023-11-19T06:04:09;11.90;99.90
52127;DHT22;38120;53.176;6.614;2023-11-19T06:06:36;11.90;99.90
52127;DHT22;38120;53.176;6.614;2023-11-19T06:09:02;11.80;99.90
52127;DHT22;38120;53.176;6.614;2023-11-19T06:11:33;11.80;99.90
52127;DHT22;38120;53.176;6.614;2023-11-19T06:13:58;11.70;99.90
52127;DHT22;38120;53.176;6.614;2023-11-19T06:16:24;11.80;99.90
52127;DHT22;38120;53.176;6.614;2023-11-19T06:18:50;11.70;99.90
52127;DHT22;38120;53.176;6.614;2023-11-19T06:21:15;11.70;99.90
52127;DHT22;38120;53.176;6.614;2023-11-19T06:23:42;11.70;99.90
52127;DHT22;38120;53.176;6.614;2023-11-19T06:26:07;11.70;99.90
52127;DHT22;38120;53.176;6.614;2023-11-19T06:28:34;11.60;99.90
52127;DHT22;38120;53.176;6.614;2023-11-19T06:31:00;11.70;99.90
52127;DHT22;38120;53.176;6.614;2023-11-19T06:33:26;11.60;99.90
52127;DHT22;38120;53.176;6.614;2023-11-19T06:35:52;11.60;99.90
52127;DHT22;38120;53.176;6.614;2023-11-19T06:38:20;11.70;99.90
52127;DHT22;38120;53.176;6.614;2023-11-19T06:40:45;11.70;99.90
52127;DHT22;38120;53.176;6.614;2023-11-19T06:43:11;11.70;99.90
52127;DHT22;38120;53.176;6.614;2023-11-19T06:45:37;11.70;99.90
52127;DHT22;38120;53.176;6.614;2023-11-19T06:48:05;11.60;99.90
52127;DHT22;38120;53.176;6.614;2023-11-19T06:50:32;11.60;99.90
52127;DHT22;38120;53.176;6.614;2023-11-19T06:52:58;11.60;99.90
52127;DHT22;38120;53.176;6.614;2023-11-19T06:55:24;11.50;99.90
52127;DHT22;38120;53.176;6.614;2023-11-19T06:57:50;11.50;99.90
52127;DHT22;38120;53.176;6.614;2023-11-19T07:00:16;11.50;99.90
52127;DHT22;38120;53.176;6.614;2023-11-19T07:02:42;11.40;99.90
52127;DHT22;38120;53.176;6.614;2023-11-19T07:05:10;11.50;99.90
52127;DHT22;38120;53.176;6.614;2023-11-19T07:07:35;11.50;99.90
52127;DHT22;38120;53.176;6.614;2023-11-19T07:10:01;11.50;99.90
52127;DHT22;38120;53.176;6.614;2023-11-19T07:12:28;11.50;99.90
52127;DHT22;38120;53.176;6.614;2023-11-19T07:14:54;11.50;99.90
52127;DHT22;38120;53.176;6.614;2023-11-19T07:17:20;11.50;99.90
52127;DHT22;38120;53.176;6.614;2023-11-19T07:19:47;11.50;99.90
52127;DHT22;38120;53.176;6.614;2023-11-19T07:22:13;11.40;99.90
52127;DHT22;38120;53.176;6.614;2023-11-19T07:24:40;11.40;99.90
52127;DHT22;38120;53.176;6.614;2023-11-19T07:27:07;11.40;99.90
52127;DHT22;38120;53.176;6.614;2023-11-19T07:29:37;11.40;99.90
52127;DHT22;38120;53.176;6.614;2023-11-19T07:32:03;11.40;99.90
52127;DHT22;38120;53.176;6.614;2023-11-19T07:34:30;11.40;99.90
52127;DHT22;38120;53.176;6.614;2023-11-19T07:36:56;11.40;99.90
52127;DHT22;38120;53.176;6.614;2023-11-19T07:39:28;11.30;99.90
52127;DHT22;38120;53.176;6.614;2023-11-19T07:41:53;11.40;99.90
52127;DHT22;38120;53.176;6.614;2023-11-19T07:44:20;11.30;99.90
52127;DHT22;38120;53.176;6.614;2023-11-19T07:46:46;11.40;99.90
52127;DHT22;38120;53.176;6.614;2023-11-19T07:49:13;11.40;99.90
52127;DHT22;38120;53.176;6.614;2023-11-19T07:51:39;11.40;99.90
52127;DHT22;38120;53.176;6.614;2023-11-19T07:54:05;11.30;99.90
52127;DHT22;38120;53.176;6.614;2023-11-19T07:56:34;11.40;99.90
52127;DHT22;38120;53.176;6.614;2023-11-19T07:59:04;11.40;99.90
52127;DHT22;38120;53.176;6.614;2023-11-19T08:01:30;11.40;99.90
52127;DHT22;38120;53.176;6.614;2023-11-19T08:03:55;11.40;99.90
52127;DHT22;38120;53.176;6.614;2023-11-19T08:06:21;11.50;99.90
52127;DHT22;38120;53.176;6.614;2023-11-19T08:08:47;11.40;99.90
52127;DHT22;38120;53.176;6.614;2023-11-19T08:11:13;11.50;99.90
52127;DHT22;38120;53.176;6.614;2023-11-19T08:13:39;11.50;99.90
52127;DHT22;38120;53.176;6.614;2023-11-19T08:16:05;11.50;99.90
52127;DHT22;38120;53.176;6.614;2023-11-19T08:18:31;11.60;99.90
52127;DHT22;38120;53.176;6.614;2023-11-19T08:20:57;11.50;99.90
52127;DHT22;38120;53.176;6.614;2023-11-19T08:23:24;11.60;99.90
52127;DHT22;38120;53.176;6.614;2023-11-19T08:25:51;11.60;99.90
52127;DHT22;38120;53.176;6.614;2023-11-19T08:28:16;11.60;99.90
52127;DHT22;38120;53.176;6.614;2023-11-19T08:30:42;11.60;99.90
52127;DHT22;38120;53.176;6.614;2023-11-19T08:33:09;11.70;99.90
52127;DHT22;38120;53.176;6.614;2023-11-19T08:35:35;11.70;99.90
52127;DHT22;38120;53.176;6.614;2023-11-19T08:38:01;11.60;99.90
52127;DHT22;38120;53.176;6.614;2023-11-19T08:40:27;11.60;99.90
52127;DHT22;38120;53.176;6.614;2023-11-19T08:42:53;11.00;99.90
52127;DHT22;38120;53.176;6.614;2023-11-19T08:45:19;11.70;99.90
52127;DHT22;38120;53.176;6.614;2023-11-19T08:47:45;11.70;99.90
52127;DHT22;38120;53.176;6.614;2023-11-19T08:50:11;11.60;99.90
52127;DHT22;38120;53.176;6.614;2023-11-19T08:52:37;11.60;99.90
52127;DHT22;38120;53.176;6.614;2023-11-19T08:55:03;10.40;99.90
52127;DHT22;38120;53.176;6.614;2023-11-19T08:57:31;11.50;99.90
52127;DHT22;38120;53.176;6.614;2023-11-19T08:59:57;11.50;99.90
52127;DHT22;38120;53.176;6.614;2023-11-19T09:02:22;11.50;99.90
52127;DHT22;38120;53.176;6.614;2023-11-19T09:04:48;11.50;99.90
52127;DHT22;38120;53.176;6.614;2023-11-19T09:07:14;11.50;99.90
52127;DHT22;38120;53.176;6.614;2023-11-19T09:09:39;11.60;99.90
52127;DHT22;38120;53.176;6.614;2023-11-19T09:12:05;11.70;99.90
52127;DHT22;38120;53.176;6.614;2023-11-19T09:14:31;11.80;99.90
52127;DHT22;38120;53.176;6.614;2023-11-19T09:16:57;11.90;99.90
52127;DHT22;38120;53.176;6.614;2023-11-19T09:19:24;12.00;99.90
52127;DHT22;38120;53.176;6.614;2023-11-19T09:21:49;12.10;99.90
52127;DHT22;38120;53.176;6.614;2023-11-19T09:24:15;12.10;99.90
52127;DHT22;38120;53.176;6.614;2023-11-19T09:26:41;12.10;99.90
52127;DHT22;38120;53.176;6.614;2023-11-19T09:29:07;12.00;99.90
52127;DHT22;38120;53.176;6.614;2023-11-19T09:31:33;12.00;99.90
52127;DHT22;38120;53.176;6.614;2023-11-19T09:34:00;12.00;99.90
52127;DHT22;38120;53.176;6.614;2023-11-19T09:36:26;11.90;99.90
52127;DHT22;38120;53.176;6.614;2023-11-19T09:38:51;11.80;99.90
52127;DHT22;38120;53.176;6.614;2023-11-19T09:41:17;11.90;99.90
52127;DHT22;38120;53.176;6.614;2023-11-19T09:43:45;11.90;99.90
52127;DHT22;38120;53.176;6.614;2023-11-19T09:46:12;11.90;99.90
52127;DHT22;38120;53.176;6.614;2023-11-19T09:48:39;12.00;99.90
52127;DHT22;38120;53.176;6.614;2023-11-19T09:51:10;12.00;99.90
52127;DHT22;38120;53.176;6.614;2023-11-19T09:53:37;12.00;99.90
52127;DHT22;38120;53.176;6.614;2023-11-19T09:56:06;12.10;99.90
52127;DHT22;38120;53.176;6.614;2023-11-19T09:58:33;12.00;99.90
52127;DHT22;38120;53.176;6.614;2023-11-19T10:01:00;12.10;99.90
52127;DHT22;38120;53.176;6.614;2023-11-19T10:03:32;12.10;99.90
52127;DHT22;38120;53.176;6.614;2023-11-19T10:05:58;12.10;99.90
52127;DHT22;38120;53.176;6.614;2023-11-19T10:08:24;12.10;99.90
52127;DHT22;38120;53.176;6.614;2023-11-19T10:10:50;12.20;99.90
52127;DHT22;38120;53.176;6.614;2023-11-19T10:13:17;12.20;99.90
52127;DHT22;38120;53.176;6.614;2023-11-19T10:15:43;12.10;99.90
52127;DHT22;38120;53.176;6.614;2023-11-19T10:18:09;12.20;99.90
52127;DHT22;38120;53.176;6.614;2023-11-19T10:20:41;12.20;99.90
52127;DHT22;38120;53.176;6.614;2023-11-19T10:23:07;12.10;99.90
52127;DHT22;38120;53.176;6.614;2023-11-19T10:25:33;12.10;99.90
52127;DHT22;38120;53.176;6.614;2023-11-19T10:27:59;12.10;99.90
52127;DHT22;38120;53.176;6.614;2023-11-19T10:30:27;12.00;99.90
52127;DHT22;38120;53.176;6.614;2023-11-19T10:33:08;12.10;99.90
52127;DHT22;38120;53.176;6.614;2023-11-19T10:35:36;12.10;99.90
52127;DHT22;38120;53.176;6.614;2023-11-19T10:38:15;12.10;99.90
52127;DHT22;38120;53.176;6.614;2023-11-19T10:40:41;12.10;99.90
52127;DHT22;38120;53.176;6.614;2023-11-19T10:43:07;12.00;99.90
52127;DHT22;38120;53.176;6.614;2023-11-19T10:45:34;12.00;99.90
52127;DHT22;38120;53.176;6.614;2023-11-19T10:48:02;12.00;99.90
52127;DHT22;38120;53.176;6.614;2023-11-19T10:50:30;12.00;99.90
52127;DHT22;38120;53.176;6.614;2023-11-19T10:52:57;11.90;99.90
52127;DHT22;38120;53.176;6.614;2023-11-19T10:55:47;11.90;99.90
52127;DHT22;38120;53.176;6.614;2023-11-19T10:58:15;11.90;99.90
52127;DHT22;38120;53.176;6.614;2023-11-19T11:00:52;11.90;99.90
52127;DHT22;38120;53.176;6.614;2023-11-19T11:03:24;11.90;99.90
52127;DHT22;38120;53.176;6.614;2023-11-19T11:05:51;12.00;99.90
52127;DHT22;38120;53.176;6.614;2023-11-19T11:08:18;12.00;99.90
52127;DHT22;38120;53.176;6.614;2023-11-19T11:10:46;12.00;99.90
52127;DHT22;38120;53.176;6.614;2023-11-19T11:13:14;12.00;99.90
52127;DHT22;38120;53.176;6.614;2023-11-19T11:15:40;12.10;99.90
52127;DHT22;38120;53.176;6.614;2023-11-19T11:18:08;12.10;99.90
52127;DHT22;38120;53.176;6.614;2023-11-19T11:20:35;12.20;99.90
52127;DHT22;38120;53.176;6.614;2023-11-19T11:26:18;12.20;99.90
52127;DHT22;38120;53.176;6.614;2023-11-19T11:28:59;12.20;99.90
52127;DHT22;38120;53.176;6.614;2023-11-19T11:34:34;12.20;99.90
52127;DHT22;38120;53.176;6.614;2023-11-19T11:37:32;12.30;99.90
52127;DHT22;38120;53.176;6.614;2023-11-19T11:39:58;12.30;99.90
52127;DHT22;38120;53.176;6.614;2023-11-19T11:50:19;12.40;99.90
52127;DHT22;38120;53.176;6.614;2023-11-19T11:55:28;12.40;99.90
52127;DHT22;38120;53.176;6.614;2023-11-19T11:57:58;12.50;99.90
52127;DHT22;38120;53.176;6.614;2023-11-19T12:00:27;12.40;99.90
52127;DHT22;38120;53.176;6.614;2023-11-19T12:03:02;12.40;99.90
52127;DHT22;38120;53.176;6.614;2023-11-19T12:05:29;12.40;99.90
52127;DHT22;38120;53.176;6.614;2023-11-19T12:08:02;12.30;99.90
52127;DHT22;38120;53.176;6.614;2023-11-19T12:10:30;12.30;99.90
52127;DHT22;38120;53.176;6.614;2023-11-19T12:13:00;12.10;99.90
52127;DHT22;38120;53.176;6.614;2023-11-19T12:15:26;12.20;99.90
52127;DHT22;38120;53.176;6.614;2023-11-19T12:17:54;12.30;99.90
52127;DHT22;38120;53.176;6.614;2023-11-19T12:20:24;12.50;99.90
52127;DHT22;38120;53.176;6.614;2023-11-19T12:22:50;12.50;99.90
52127;DHT22;38120;53.176;6.614;2023-11-19T12:25:17;12.60;99.90
52127;DHT22;38120;53.176;6.614;2023-11-19T12:27:52;12.70;99.90
52127;DHT22;38120;53.176;6.614;2023-11-19T12:30:26;12.70;99.90
52127;DHT22;38120;53.176;6.614;2023-11-19T12:32:52;12.60;99.90
52127;DHT22;38120;53.176;6.614;2023-11-19T12:35:22;12.60;99.90
52127;DHT22;38120;53.176;6.614;2023-11-19T12:37:48;12.60;99.90
52127;DHT22;38120;53.176;6.614;2023-11-19T12:40:16;12.60;99.90
52127;DHT22;38120;53.176;6.614;2023-11-19T12:42:43;12.60;99.90
52127;DHT22;38120;53.176;6.614;2023-11-19T12:45:09;12.60;99.90
52127;DHT22;38120;53.176;6.614;2023-11-19T12:47:43;12.60;99.90
52127;DHT22;38120;53.176;6.614;2023-11-19T12:50:09;12.60;99.90
52127;DHT22;38120;53.176;6.614;2023-11-19T12:52:36;12.70;99.90
52127;DHT22;38120;53.176;6.614;2023-11-19T12:55:04;12.60;99.90
52127;DHT22;38120;53.176;6.614;2023-11-19T12:57:41;12.60;99.90
52127;DHT22;38120;53.176;6.614;2023-11-19T13:00:17;12.60;99.90
52127;DHT22;38120;53.176;6.614;2023-11-19T13:02:47;12.60;99.90
52127;DHT22;38120;53.176;6.614;2023-11-19T13:05:34;12.60;99.90
52127;DHT22;38120;53.176;6.614;2023-11-19T13:08:08;12.50;99.90
52127;DHT22;38120;53.176;6.614;2023-11-19T13:13:19;12.40;99.90
52127;DHT22;38120;53.176;6.614;2023-11-19T13:15:45;12.50;99.90
52127;DHT22;38120;53.176;6.614;2023-11-19T13:18:11;12.50;99.90
52127;DHT22;38120;53.176;6.614;2023-11-19T13:20:37;12.50;99.90
52127;DHT22;38120;53.176;6.614;2023-11-19T13:23:05;12.50;99.90
52127;DHT22;38120;53.176;6.614;2023-11-19T13:25:31;12.50;99.90
52127;DHT22;38120;53.176;6.614;2023-11-19T13:27:58;12.50;99.90
52127;DHT22;38120;53.176;6.614;2023-11-19T13:30:24;12.50;99.90
52127;DHT22;38120;53.176;6.614;2023-11-19T13:32:50;12.50;99.90
52127;DHT22;38120;53.176;6.614;2023-11-19T13:35:17;12.50;99.90
52127;DHT22;38120;53.176;6.614;2023-11-19T13:37:44;12.40;99.90
52127;DHT22;38120;53.176;6.614;2023-11-19T13:40:11;12.40;99.90
52127;DHT22;38120;53.176;6.614;2023-11-19T13:42:44;12.40;99.90
52127;DHT22;38120;53.176;6.614;2023-11-19T13:45:14;12.30;99.90
52127;DHT22;38120;53.176;6.614;2023-11-19T13:47:40;12.40;99.90
52127;DHT22;38120;53.176;6.614;2023-11-19T13:50:14;12.30;99.90
52127;DHT22;38120;53.176;6.614;2023-11-19T13:52:41;12.30;99.90
52127;DHT22;38120;53.176;6.614;2023-11-19T13:55:09;12.30;99.90
52127;DHT22;38120;53.176;6.614;2023-11-19T13:57:36;12.30;99.90
52127;DHT22;38120;53.176;6.614;2023-11-19T14:00:07;12.30;99.90
52127;DHT22;38120;53.176;6.614;2023-11-19T14:02:36;12.30;99.90
52127;DHT22;38120;53.176;6.614;2023-11-19T14:05:02;12.30;99.90
52127;DHT22;38120;53.176;6.614;2023-11-19T14:07:28;12.30;99.90
52127;DHT22;38120;53.176;6.614;2023-11-19T14:09:54;12.20;99.90
52127;DHT22;38120;53.176;6.614;2023-11-19T14:12:20;12.10;99.90
52127;DHT22;38120;53.176;6.614;2023-11-19T14:14:46;12.10;99.90
52127;DHT22;38120;53.176;6.614;2023-11-19T14:17:12;12.10;99.90
52127;DHT22;38120;53.176;6.614;2023-11-19T14:19:42;12.10;99.90
52127;DHT22;38120;53.176;6.614;2023-11-19T14:22:08;12.00;99.90
52127;DHT22;38120;53.176;6.614;2023-11-19T14:24:34;12.00;99.90
52127;DHT22;38120;53.176;6.614;2023-11-19T14:27:00;12.10;99.90
52127;DHT22;38120;53.176;6.614;2023-11-19T14:29:27;12.00;99.90
52127;DHT22;38120;53.176;6.614;2023-11-19T14:31:55;12.00;99.90
52127;DHT22;38120;53.176;6.614;2023-11-19T14:34:20;12.00;99.90
52127;DHT22;38120;53.176;6.614;2023-11-19T14:36:46;12.00;99.90
52127;DHT22;38120;53.176;6.614;2023-11-19T14:39:13;12.00;99.90
52127;DHT22;38120;53.176;6.614;2023-11-19T14:41:39;12.00;99.90
52127;DHT22;38120;53.176;6.614;2023-11-19T14:44:05;12.00;99.90
52127;DHT22;38120;53.176;6.614;2023-11-19T14:46:31;12.10;99.90
52127;DHT22;38120;53.176;6.614;2023-11-19T14:48:59;12.00;99.90
52127;DHT22;38120;53.176;6.614;2023-11-19T14:51:25;12.00;99.90
52127;DHT22;38120;53.176;6.614;2023-11-19T14:53:51;11.90;99.90
52127;DHT22;38120;53.176;6.614;2023-11-19T14:56:17;11.90;99.90
52127;DHT22;38120;53.176;6.614;2023-11-19T14:58:43;11.80;99.90
52127;DHT22;38120;53.176;6.614;2023-11-19T15:01:13;11.80;99.90
52127;DHT22;38120;53.176;6.614;2023-11-19T15:03:39;11.70;99.90
52127;DHT22;38120;53.176;6.614;2023-11-19T15:06:06;11.70;99.90
52127;DHT22;38120;53.176;6.614;2023-11-19T15:08:33;11.70;99.90
52127;DHT22;38120;53.176;6.614;2023-11-19T15:10:58;11.70;99.90
52127;DHT22;38120;53.176;6.614;2023-11-19T15:13:35;11.70;99.90
52127;DHT22;38120;53.176;6.614;2023-11-19T15:16:03;11.60;99.90
52127;DHT22;38120;53.176;6.614;2023-11-19T15:18:31;11.60;99.90
52127;DHT22;38120;53.176;6.614;2023-11-19T15:20:57;11.70;99.90
52127;DHT22;38120;53.176;6.614;2023-11-19T15:23:23;11.60;99.90
52127;DHT22;38120;53.176;6.614;2023-11-19T15:25:50;11.70;99.90
52127;DHT22;38120;53.176;6.614;2023-11-19T15:28:22;11.70;99.90
52127;DHT22;38120;53.176;6.614;2023-11-19T15:30:47;11.70;99.90
52127;DHT22;38120;53.176;6.614;2023-11-19T15:33:13;11.80;99.90
52127;DHT22;38120;53.176;6.614;2023-11-19T15:35:39;11.80;99.90
52127;DHT22;38120;53.176;6.614;2023-11-19T15:38:06;11.90;99.90
52127;DHT22;38120;53.176;6.614;2023-11-19T15:40:35;11.80;99.90
52127;DHT22;38120;53.176;6.614;2023-11-19T15:43:01;11.80;99.90
52127;DHT22;38120;53.176;6.614;2023-11-19T15:45:27;11.80;99.90
52127;DHT22;38120;53.176;6.614;2023-11-19T15:47:58;11.80;99.90
52127;DHT22;38120;53.176;6.614;2023-11-19T15:50:26;11.80;99.90